KBHM/BHM METAR and TAF weather

Enter ICAO airport designator
Station Type Date Time Source
KBHM METAR 2020/07/11 19:53 UTC NOAA

KBHM 111953Z 36012G21KT 10SM CLR 32/18 A2998 RMK AO2 SLP144 T03220178


Station Type Date Time Source
KBHM Decoded METAR 2020/07/11 19:53 UTC NOAA

BIRMINGHAM INT'L AIRPORT, AL, United States (KBHM) 33-34N 086-45W 197M
Jul 11, 2020 - 03:53 PM EDT / 2020.07.11 1953 UTC
Wind: from the N (360 degrees) at 14 MPH (12 KT) gusting to 24 MPH (21 KT):0
Visibility: 10 mile(s):0
Sky conditions: clear
Temperature: 90.0 F (32.2 C)
Dew Point: 64.0 F (17.8 C)
Relative Humidity: 42%
Pressure (altimeter): 29.98 in. Hg (1015 hPa)
ob: KBHM 111953Z 36012G21KT 10SM CLR 32/18 A2998 RMK AO2 SLP144 T03220178
cycle: 20

Station Type Date Time Source
KBHM TAF 2020/07/11 18:40 UTC NOAA

TAF KBHM 111738Z 1118/1218 34012G19KT P6SM SKC
FM120100 VRB02KT P6SM SKC
FM121200 26005KT P6SM FEW100 PROB30 1212/1215 4SM TSRA BKN100CB

Example: see airport list